createdAt,value
2022-11-19T00:00:01.340Z,14.80
2022-11-19T00:10:00.129Z,13.40
2022-11-19T00:20:01.080Z,21.20
2022-11-19T00:30:01.062Z,18.30
2022-11-19T00:40:02.260Z,16.30
2022-11-19T00:50:01.448Z,16.30
2022-11-19T01:00:01.290Z,13.20
2022-11-19T01:10:03.094Z,20.70
2022-11-19T01:20:01.253Z,15.40
2022-11-19T01:30:01.237Z,16.20
2022-11-19T01:40:00.169Z,15.20
2022-11-19T01:50:01.365Z,14.30
2022-11-19T02:00:00.162Z,12.00
2022-11-19T02:10:01.228Z,14.00
2022-11-19T02:20:01.705Z,13.30
2022-11-19T02:30:00.158Z,12.80
2022-11-19T02:40:02.311Z,13.10
2022-11-19T02:50:00.980Z,15.80
2022-11-19T03:00:01.344Z,15.20
2022-11-19T03:10:00.120Z,13.60
2022-11-19T03:20:01.114Z,15.60
2022-11-19T03:30:00.171Z,10.50
2022-11-19T03:40:01.233Z,17.30
2022-11-19T03:50:01.066Z,13.30
2022-11-19T04:00:02.086Z,14.30
2022-11-19T04:10:00.123Z,14.80
2022-11-19T04:20:01.315Z,14.40
2022-11-19T04:30:01.993Z,15.70
2022-11-19T04:40:01.267Z,13.20
2022-11-19T04:50:01.228Z,10.00
2022-11-19T05:00:01.073Z,10.60
2022-11-19T05:10:01.633Z,16.90
2022-11-19T05:20:01.594Z,11.70
2022-11-19T05:30:01.290Z,12.90
2022-11-19T05:40:01.005Z,9.60
2022-11-19T05:50:00.152Z,12.90
2022-11-19T06:00:01.476Z,9.60
2022-11-19T06:10:01.246Z,10.20
2022-11-19T06:20:00.183Z,11.70
2022-11-19T06:30:00.166Z,12.80
2022-11-19T06:40:00.164Z,12.00
2022-11-19T06:50:01.212Z,8.30
2022-11-19T07:00:02.250Z,10.90
2022-11-19T07:10:01.277Z,12.20
2022-11-19T07:20:01.314Z,11.80
2022-11-19T07:30:01.053Z,16.10
2022-11-19T07:40:01.057Z,9.00
2022-11-19T07:50:00.169Z,9.40
2022-11-19T08:00:01.012Z,12.20
2022-11-19T08:10:01.428Z,6.70
2022-11-19T08:20:02.003Z,6.10
2022-11-19T08:30:01.090Z,7.70
2022-11-19T08:40:00.154Z,10.90
2022-11-19T08:50:01.037Z,11.40
2022-11-19T09:00:06.069Z,7.00
2022-11-19T09:10:01.010Z,9.30
2022-11-19T09:20:01.090Z,7.20
2022-11-19T09:30:00.989Z,9.20
2022-11-19T09:40:01.511Z,6.10
2022-11-19T09:50:01.488Z,6.20
2022-11-19T10:00:01.639Z,8.80
2022-11-19T10:10:01.239Z,3.90
2022-11-19T10:20:01.525Z,4.40
2022-11-19T10:30:01.061Z,5.40
2022-11-19T10:40:00.171Z,4.60
2022-11-19T10:50:03.535Z,4.80
2022-11-19T11:00:00.153Z,4.50
2022-11-19T11:10:01.058Z,4.70
2022-11-19T11:30:00.136Z,7.80
2022-11-19T11:40:01.280Z,7.50
2022-11-19T11:50:01.041Z,5.80
2022-11-19T12:00:01.591Z,3.80
2022-11-19T12:10:01.167Z,5.90
2022-11-19T12:20:01.024Z,6.30
2022-11-19T12:30:01.953Z,13.40
2022-11-19T12:40:00.166Z,6.60
2022-11-19T12:50:01.244Z,7.10
2022-11-19T13:00:01.060Z,6.00
2022-11-19T13:10:01.813Z,7.60
2022-11-19T13:20:01.005Z,7.50
2022-11-19T13:30:01.574Z,2.50
2022-11-19T13:40:01.273Z,8.10
2022-11-19T13:50:01.241Z,5.70
2022-11-19T14:00:01.456Z,9.20
2022-11-19T14:10:01.265Z,9.50
2022-11-19T14:20:01.063Z,11.30
2022-11-19T14:30:01.028Z,3.30
2022-11-19T14:40:00.197Z,7.30
2022-11-19T14:50:01.451Z,8.70
2022-11-19T15:00:00.179Z,9.90
2022-11-19T15:10:00.969Z,9.20
2022-11-19T15:20:01.270Z,11.90
2022-11-19T15:30:01.226Z,7.60
2022-11-19T15:40:01.486Z,8.90
2022-11-19T15:50:01.597Z,9.30
2022-11-19T16:00:01.633Z,10.10
2022-11-19T16:10:01.161Z,9.70
2022-11-19T16:20:01.032Z,10.20
2022-11-19T16:30:00.141Z,9.30
2022-11-19T16:40:01.547Z,10.40
2022-11-19T16:50:01.300Z,5.70
2022-11-19T17:00:01.606Z,5.90
2022-11-19T17:10:01.265Z,11.20
2022-11-19T17:20:01.303Z,10.70
2022-11-19T17:30:01.361Z,9.70
2022-11-19T17:40:01.072Z,8.80
2022-11-19T17:50:01.040Z,10.50
2022-11-19T18:00:02.120Z,11.90
2022-11-19T18:10:00.145Z,14.70
2022-11-19T18:20:01.333Z,10.70
2022-11-19T18:30:00.995Z,8.20
2022-11-19T18:40:00.189Z,9.60
2022-11-19T18:50:01.017Z,11.60
2022-11-19T19:00:01.004Z,12.50
2022-11-19T19:10:01.044Z,7.90
2022-11-19T19:20:00.166Z,13.40
2022-11-19T19:30:01.727Z,11.30
2022-11-19T19:40:01.464Z,14.80
2022-11-19T19:50:00.978Z,14.50
2022-11-19T20:00:01.575Z,17.40
2022-11-19T20:10:01.016Z,14.10
2022-11-19T20:20:01.963Z,14.50
2022-11-19T20:30:01.036Z,1.10
2022-11-19T20:40:01.414Z,1.10
2022-11-19T20:50:00.151Z,1.10
2022-11-19T21:00:01.039Z,1.10
2022-11-19T21:10:06.407Z,1.10
2022-11-19T21:20:00.882Z,1.10
2022-11-19T21:30:01.085Z,1.10
2022-11-19T21:40:01.575Z,1.10
2022-11-19T21:50:01.343Z,1.10
2022-11-19T22:00:02.431Z,1.10
2022-11-19T22:10:01.242Z,1.10
2022-11-19T22:20:01.953Z,1.10
2022-11-19T22:30:05.588Z,1.10
2022-11-19T22:40:01.279Z,1.10
2022-11-19T22:50:01.037Z,1.10
2022-11-19T23:00:01.736Z,1.20
2022-11-19T23:10:01.216Z,2.30
2022-11-19T23:20:04.531Z,1.10
2022-11-19T23:30:01.287Z,1.30
2022-11-19T23:40:01.049Z,1.10
2022-11-19T23:50:01.011Z,1.10
